sensor_id;sensor_type;location;lat;lon;timestamp;P1;durP1;ratioP1;P2;durP2;ratioP2
78443;SDS011;67739;52.986;8.894;2023-05-23T00:01:11;9.10;;;5.18;;
78443;SDS011;67739;52.986;8.894;2023-05-23T00:03:38;9.88;;;4.35;;
78443;SDS011;67739;52.986;8.894;2023-05-23T00:06:05;7.40;;;3.17;;
78443;SDS011;67739;52.986;8.894;2023-05-23T00:08:31;9.00;;;3.40;;
78443;SDS011;67739;52.986;8.894;2023-05-23T00:10:56;8.98;;;3.35;;
78443;SDS011;67739;52.986;8.894;2023-05-23T00:13:21;7.53;;;2.78;;
78443;SDS011;67739;52.986;8.894;2023-05-23T00:15:47;7.45;;;3.47;;
78443;SDS011;67739;52.986;8.894;2023-05-23T00:18:12;6.70;;;3.42;;
78443;SDS011;67739;52.986;8.894;2023-05-23T00:20:39;9.63;;;3.38;;
78443;SDS011;67739;52.986;8.894;2023-05-23T00:23:06;8.52;;;4.57;;
78443;SDS011;67739;52.986;8.894;2023-05-23T00:25:33;6.55;;;2.83;;
78443;SDS011;67739;52.986;8.894;2023-05-23T00:28:00;8.43;;;4.72;;
78443;SDS011;67739;52.986;8.894;2023-05-23T00:30:26;6.75;;;2.83;;
78443;SDS011;67739;52.986;8.894;2023-05-23T00:32:52;8.07;;;3.95;;
78443;SDS011;67739;52.986;8.894;2023-05-23T00:35:19;7.47;;;3.88;;
78443;SDS011;67739;52.986;8.894;2023-05-23T00:37:46;7.18;;;3.97;;
78443;SDS011;67739;52.986;8.894;2023-05-23T00:40:14;7.60;;;3.63;;
78443;SDS011;67739;52.986;8.894;2023-05-23T00:42:39;6.40;;;2.95;;
78443;SDS011;67739;52.986;8.894;2023-05-23T00:45:05;7.00;;;2.53;;
78443;SDS011;67739;52.986;8.894;2023-05-23T00:47:31;6.63;;;2.20;;
78443;SDS011;67739;52.986;8.894;2023-05-23T00:49:56;3.58;;;1.75;;
78443;SDS011;67739;52.986;8.894;2023-05-23T00:52:22;6.55;;;2.50;;
78443;SDS011;67739;52.986;8.894;2023-05-23T00:54:47;5.78;;;2.20;;
78443;SDS011;67739;52.986;8.894;2023-05-23T00:57:13;7.25;;;2.40;;
78443;SDS011;67739;52.986;8.894;2023-05-23T00:59:39;6.82;;;2.20;;
78443;SDS011;67739;52.986;8.894;2023-05-23T01:02:04;8.10;;;3.22;;
78443;SDS011;67739;52.986;8.894;2023-05-23T01:04:30;4.57;;;1.80;;
78443;SDS011;67739;52.986;8.894;2023-05-23T01:06:58;6.28;;;2.15;;
78443;SDS011;67739;52.986;8.894;2023-05-23T01:09:24;5.32;;;2.83;;
78443;SDS011;67739;52.986;8.894;2023-05-23T01:14:44;7.55;;;3.38;;
78443;SDS011;67739;52.986;8.894;2023-05-23T01:17:18;8.10;;;3.47;;
78443;SDS011;67739;52.986;8.894;2023-05-23T01:20:05;5.00;;;2.28;;
78443;SDS011;67739;52.986;8.894;2023-05-23T01:27:57;5.28;;;2.55;;
78443;SDS011;67739;52.986;8.894;2023-05-23T01:30:25;6.00;;;1.10;;
78443;SDS011;67739;52.986;8.894;2023-05-23T01:32:54;5.72;;;2.47;;
78443;SDS011;67739;52.986;8.894;2023-05-23T01:35:23;5.65;;;1.80;;
78443;SDS011;67739;52.986;8.894;2023-05-23T01:37:51;3.80;;;1.55;;
78443;SDS011;67739;52.986;8.894;2023-05-23T01:40:20;4.18;;;1.00;;
78443;SDS011;67739;52.986;8.894;2023-05-23T01:42:46;3.05;;;0.93;;
78443;SDS011;67739;52.986;8.894;2023-05-23T01:45:11;4.25;;;1.75;;
78443;SDS011;67739;52.986;8.894;2023-05-23T01:47:38;4.70;;;1.45;;
78443;SDS011;67739;52.986;8.894;2023-05-23T01:50:05;4.72;;;2.25;;
78443;SDS011;67739;52.986;8.894;2023-05-23T01:52:33;5.07;;;1.63;;
78443;SDS011;67739;52.986;8.894;2023-05-23T01:54:59;5.47;;;2.22;;
78443;SDS011;67739;52.986;8.894;2023-05-23T01:57:25;3.90;;;1.25;;
78443;SDS011;67739;52.986;8.894;2023-05-23T01:59:53;5.07;;;1.80;;
78443;SDS011;67739;52.986;8.894;2023-05-23T02:02:18;4.15;;;1.48;;
78443;SDS011;67739;52.986;8.894;2023-05-23T02:04:44;5.53;;;2.13;;
78443;SDS011;67739;52.986;8.894;2023-05-23T02:07:09;5.75;;;2.65;;
78443;SDS011;67739;52.986;8.894;2023-05-23T02:09:34;4.75;;;2.15;;
78443;SDS011;67739;52.986;8.894;2023-05-23T02:12:00;5.05;;;2.63;;
78443;SDS011;67739;52.986;8.894;2023-05-23T02:14:25;4.72;;;1.90;;
78443;SDS011;67739;52.986;8.894;2023-05-23T02:16:52;7.80;;;3.25;;
78443;SDS011;67739;52.986;8.894;2023-05-23T02:19:17;6.13;;;2.13;;
78443;SDS011;67739;52.986;8.894;2023-05-23T02:21:43;5.72;;;2.03;;
78443;SDS011;67739;52.986;8.894;2023-05-23T02:24:08;7.78;;;2.50;;
78443;SDS011;67739;52.986;8.894;2023-05-23T02:26:33;9.43;;;3.97;;
78443;SDS011;67739;52.986;8.894;2023-05-23T02:28:59;8.10;;;3.50;;
78443;SDS011;67739;52.986;8.894;2023-05-23T02:31:25;8.98;;;3.50;;
78443;SDS011;67739;52.986;8.894;2023-05-23T02:33:50;7.97;;;3.60;;
78443;SDS011;67739;52.986;8.894;2023-05-23T02:36:16;8.05;;;2.83;;
78443;SDS011;67739;52.986;8.894;2023-05-23T02:38:41;10.90;;;4.88;;
78443;SDS011;67739;52.986;8.894;2023-05-23T02:41:06;8.38;;;4.13;;
78443;SDS011;67739;52.986;8.894;2023-05-23T02:43:32;10.25;;;3.90;;
78443;SDS011;67739;52.986;8.894;2023-05-23T02:45:57;8.18;;;5.00;;
78443;SDS011;67739;52.986;8.894;2023-05-23T02:48:22;5.78;;;2.53;;
78443;SDS011;67739;52.986;8.894;2023-05-23T02:50:48;8.73;;;2.60;;
78443;SDS011;67739;52.986;8.894;2023-05-23T02:53:13;8.15;;;2.85;;
78443;SDS011;67739;52.986;8.894;2023-05-23T02:55:38;7.15;;;2.90;;
78443;SDS011;67739;52.986;8.894;2023-05-23T02:58:04;10.57;;;4.22;;
78443;SDS011;67739;52.986;8.894;2023-05-23T03:00:29;9.13;;;3.60;;
78443;SDS011;67739;52.986;8.894;2023-05-23T03:02:56;6.38;;;3.08;;
78443;SDS011;67739;52.986;8.894;2023-05-23T03:05:22;7.50;;;3.72;;
78443;SDS011;67739;52.986;8.894;2023-05-23T03:07:47;8.95;;;3.72;;
78443;SDS011;67739;52.986;8.894;2023-05-23T03:10:12;7.97;;;4.38;;
78443;SDS011;67739;52.986;8.894;2023-05-23T03:12:37;6.80;;;3.90;;
78443;SDS011;67739;52.986;8.894;2023-05-23T03:15:03;8.77;;;3.83;;
78443;SDS011;67739;52.986;8.894;2023-05-23T03:17:29;11.30;;;5.30;;
78443;SDS011;67739;52.986;8.894;2023-05-23T03:19:54;10.55;;;6.00;;
78443;SDS011;67739;52.986;8.894;2023-05-23T03:22:19;10.45;;;3.63;;
78443;SDS011;67739;52.986;8.894;2023-05-23T03:24:45;11.43;;;5.57;;
78443;SDS011;67739;52.986;8.894;2023-05-23T03:27:10;8.85;;;4.55;;
78443;SDS011;67739;52.986;8.894;2023-05-23T03:29:36;9.25;;;3.90;;
78443;SDS011;67739;52.986;8.894;2023-05-23T03:32:01;10.10;;;4.93;;
78443;SDS011;67739;52.986;8.894;2023-05-23T03:34:27;11.45;;;6.18;;
78443;SDS011;67739;52.986;8.894;2023-05-23T03:36:52;12.43;;;5.88;;
78443;SDS011;67739;52.986;8.894;2023-05-23T03:39:17;9.10;;;3.92;;
78443;SDS011;67739;52.986;8.894;2023-05-23T03:41:43;13.80;;;4.68;;
78443;SDS011;67739;52.986;8.894;2023-05-23T03:44:08;8.50;;;4.70;;
78443;SDS011;67739;52.986;8.894;2023-05-23T03:46:33;14.20;;;7.25;;
78443;SDS011;67739;52.986;8.894;2023-05-23T03:48:59;10.00;;;4.47;;
78443;SDS011;67739;52.986;8.894;2023-05-23T03:51:24;14.57;;;5.55;;
78443;SDS011;67739;52.986;8.894;2023-05-23T03:53:49;11.70;;;5.93;;
78443;SDS011;67739;52.986;8.894;2023-05-23T03:56:15;10.65;;;6.93;;
78443;SDS011;67739;52.986;8.894;2023-05-23T03:58:40;11.50;;;6.35;;
78443;SDS011;67739;52.986;8.894;2023-05-23T04:01:05;12.00;;;5.28;;
78443;SDS011;67739;52.986;8.894;2023-05-23T04:03:31;12.10;;;5.90;;
78443;SDS011;67739;52.986;8.894;2023-05-23T04:05:57;13.90;;;7.22;;
78443;SDS011;67739;52.986;8.894;2023-05-23T04:08:24;11.95;;;4.95;;
78443;SDS011;67739;52.986;8.894;2023-05-23T04:10:50;14.10;;;7.22;;
78443;SDS011;67739;52.986;8.894;2023-05-23T04:13:16;14.18;;;8.27;;
78443;SDS011;67739;52.986;8.894;2023-05-23T04:15:41;13.30;;;6.22;;
78443;SDS011;67739;52.986;8.894;2023-05-23T04:18:07;12.88;;;7.13;;
78443;SDS011;67739;52.986;8.894;2023-05-23T04:20:33;11.48;;;7.10;;
78443;SDS011;67739;52.986;8.894;2023-05-23T04:22:59;9.95;;;5.68;;
78443;SDS011;67739;52.986;8.894;2023-05-23T04:25:24;10.57;;;6.07;;
78443;SDS011;67739;52.986;8.894;2023-05-23T04:27:50;16.38;;;6.45;;
78443;SDS011;67739;52.986;8.894;2023-05-23T04:30:15;9.30;;;4.55;;
78443;SDS011;67739;52.986;8.894;2023-05-23T04:32:42;8.68;;;4.15;;
78443;SDS011;67739;52.986;8.894;2023-05-23T04:35:08;6.28;;;2.45;;
78443;SDS011;67739;52.986;8.894;2023-05-23T04:37:33;10.98;;;5.65;;
78443;SDS011;67739;52.986;8.894;2023-05-23T04:39:59;8.35;;;4.35;;
78443;SDS011;67739;52.986;8.894;2023-05-23T04:42:25;7.05;;;2.90;;
78443;SDS011;67739;52.986;8.894;2023-05-23T04:44:53;9.68;;;4.72;;
78443;SDS011;67739;52.986;8.894;2023-05-23T04:47:28;6.97;;;3.72;;
78443;SDS011;67739;52.986;8.894;2023-05-23T04:49:58;7.22;;;3.95;;
78443;SDS011;67739;52.986;8.894;2023-05-23T04:52:24;7.97;;;2.70;;
78443;SDS011;67739;52.986;8.894;2023-05-23T04:54:59;7.32;;;3.80;;
78443;SDS011;67739;52.986;8.894;2023-05-23T04:57:25;9.27;;;3.30;;
78443;SDS011;67739;52.986;8.894;2023-05-23T04:59:50;5.88;;;4.15;;
78443;SDS011;67739;52.986;8.894;2023-05-23T05:02:16;7.20;;;3.35;;
78443;SDS011;67739;52.986;8.894;2023-05-23T05:04:41;6.38;;;2.90;;
78443;SDS011;67739;52.986;8.894;2023-05-23T05:07:07;7.10;;;2.33;;
78443;SDS011;67739;52.986;8.894;2023-05-23T05:09:32;7.50;;;3.35;;
78443;SDS011;67739;52.986;8.894;2023-05-23T05:11:58;8.10;;;3.90;;
78443;SDS011;67739;52.986;8.894;2023-05-23T05:14:26;7.85;;;2.92;;
78443;SDS011;67739;52.986;8.894;2023-05-23T05:16:51;7.32;;;4.03;;
78443;SDS011;67739;52.986;8.894;2023-05-23T05:19:19;5.65;;;2.63;;
78443;SDS011;67739;52.986;8.894;2023-05-23T05:21:45;9.07;;;3.10;;
78443;SDS011;67739;52.986;8.894;2023-05-23T05:24:10;7.68;;;3.60;;
78443;SDS011;67739;52.986;8.894;2023-05-23T05:26:36;5.93;;;3.03;;
78443;SDS011;67739;52.986;8.894;2023-05-23T05:29:02;5.05;;;2.90;;
78443;SDS011;67739;52.986;8.894;2023-05-23T05:31:28;5.80;;;2.78;;
78443;SDS011;67739;52.986;8.894;2023-05-23T05:33:53;7.45;;;3.20;;
78443;SDS011;67739;52.986;8.894;2023-05-23T05:36:19;5.47;;;2.55;;
78443;SDS011;67739;52.986;8.894;2023-05-23T05:38:44;8.77;;;4.22;;
78443;SDS011;67739;52.986;8.894;2023-05-23T05:41:10;9.55;;;4.63;;
78443;SDS011;67739;52.986;8.894;2023-05-23T05:43:35;7.28;;;3.53;;
78443;SDS011;67739;52.986;8.894;2023-05-23T05:46:00;8.10;;;3.70;;
78443;SDS011;67739;52.986;8.894;2023-05-23T05:48:26;10.07;;;4.30;;
78443;SDS011;67739;52.986;8.894;2023-05-23T05:50:51;13.82;;;7.63;;
78443;SDS011;67739;52.986;8.894;2023-05-23T05:53:16;9.23;;;5.50;;
78443;SDS011;67739;52.986;8.894;2023-05-23T05:55:42;10.40;;;6.63;;
78443;SDS011;67739;52.986;8.894;2023-05-23T05:58:07;13.02;;;7.32;;
78443;SDS011;67739;52.986;8.894;2023-05-23T06:00:32;12.18;;;5.65;;
78443;SDS011;67739;52.986;8.894;2023-05-23T06:03:05;8.75;;;5.15;;
78443;SDS011;67739;52.986;8.894;2023-05-23T06:05:31;9.02;;;3.50;;
78443;SDS011;67739;52.986;8.894;2023-05-23T06:07:56;13.05;;;4.78;;
78443;SDS011;67739;52.986;8.894;2023-05-23T06:10:22;9.88;;;5.00;;
78443;SDS011;67739;52.986;8.894;2023-05-23T06:12:48;8.88;;;4.70;;
78443;SDS011;67739;52.986;8.894;2023-05-23T06:15:14;8.55;;;4.55;;
78443;SDS011;67739;52.986;8.894;2023-05-23T06:17:40;5.50;;;2.83;;
78443;SDS011;67739;52.986;8.894;2023-05-23T06:20:05;8.25;;;4.28;;
78443;SDS011;67739;52.986;8.894;2023-05-23T06:22:32;7.22;;;3.80;;
78443;SDS011;67739;52.986;8.894;2023-05-23T06:24:57;8.32;;;4.07;;
78443;SDS011;67739;52.986;8.894;2023-05-23T06:27:23;9.57;;;4.70;;
78443;SDS011;67739;52.986;8.894;2023-05-23T06:29:48;8.10;;;4.65;;
78443;SDS011;67739;52.986;8.894;2023-05-23T06:32:14;12.00;;;5.30;;
78443;SDS011;67739;52.986;8.894;2023-05-23T06:34:39;10.50;;;6.15;;
78443;SDS011;67739;52.986;8.894;2023-05-23T06:37:05;14.30;;;6.50;;
78443;SDS011;67739;52.986;8.894;2023-05-23T06:39:30;11.18;;;6.07;;
78443;SDS011;67739;52.986;8.894;2023-05-23T06:41:56;6.93;;;3.53;;
78443;SDS011;67739;52.986;8.894;2023-05-23T06:44:21;11.27;;;5.10;;
78443;SDS011;67739;52.986;8.894;2023-05-23T06:46:46;12.75;;;6.30;;
78443;SDS011;67739;52.986;8.894;2023-05-23T06:49:12;5.22;;;2.47;;
78443;SDS011;67739;52.986;8.894;2023-05-23T06:51:39;7.65;;;2.33;;
78443;SDS011;67739;52.986;8.894;2023-05-23T06:54:04;5.43;;;2.42;;
78443;SDS011;67739;52.986;8.894;2023-05-23T06:56:30;8.77;;;4.80;;
78443;SDS011;67739;52.986;8.894;2023-05-23T06:58:55;7.13;;;3.08;;
78443;SDS011;67739;52.986;8.894;2023-05-23T07:01:20;7.60;;;3.40;;
78443;SDS011;67739;52.986;8.894;2023-05-23T07:03:46;4.07;;;1.83;;
78443;SDS011;67739;52.986;8.894;2023-05-23T07:06:11;7.22;;;2.63;;
78443;SDS011;67739;52.986;8.894;2023-05-23T07:08:37;6.03;;;1.63;;
78443;SDS011;67739;52.986;8.894;2023-05-23T07:11:03;10.90;;;2.97;;
78443;SDS011;67739;52.986;8.894;2023-05-23T07:13:29;5.38;;;1.13;;
78443;SDS011;67739;52.986;8.894;2023-05-23T07:15:54;2.50;;;0.68;;
78443;SDS011;67739;52.986;8.894;2023-05-23T07:18:20;6.35;;;2.63;;
78443;SDS011;67739;52.986;8.894;2023-05-23T07:20:46;1.63;;;0.57;;
78443;SDS011;67739;52.986;8.894;2023-05-23T07:23:11;5.43;;;1.95;;
78443;SDS011;67739;52.986;8.894;2023-05-23T07:25:36;2.05;;;0.93;;
78443;SDS011;67739;52.986;8.894;2023-05-23T07:28:04;4.30;;;1.33;;
78443;SDS011;67739;52.986;8.894;2023-05-23T07:30:29;1.50;;;0.38;;
78443;SDS011;67739;52.986;8.894;2023-05-23T07:32:55;3.55;;;1.27;;
78443;SDS011;67739;52.986;8.894;2023-05-23T07:35:20;2.75;;;0.90;;
78443;SDS011;67739;52.986;8.894;2023-05-23T07:37:51;7.00;;;2.50;;
78443;SDS011;67739;52.986;8.894;2023-05-23T07:40:17;3.60;;;1.38;;
78443;SDS011;67739;52.986;8.894;2023-05-23T07:42:43;7.70;;;1.38;;
78443;SDS011;67739;52.986;8.894;2023-05-23T07:45:08;5.82;;;1.67;;
78443;SDS011;67739;52.986;8.894;2023-05-23T07:47:34;2.22;;;0.77;;
78443;SDS011;67739;52.986;8.894;2023-05-23T07:49:59;4.50;;;0.60;;
78443;SDS011;67739;52.986;8.894;2023-05-23T07:52:26;1.98;;;0.80;;
78443;SDS011;67739;52.986;8.894;2023-05-23T07:54:53;4.90;;;1.25;;
78443;SDS011;67739;52.986;8.894;2023-05-23T07:57:18;4.53;;;1.30;;
78443;SDS011;67739;52.986;8.894;2023-05-23T07:59:43;2.78;;;0.77;;
78443;SDS011;67739;52.986;8.894;2023-05-23T08:02:09;2.53;;;0.70;;
78443;SDS011;67739;52.986;8.894;2023-05-23T08:04:34;1.88;;;0.55;;
78443;SDS011;67739;52.986;8.894;2023-05-23T08:07:00;3.03;;;1.10;;
78443;SDS011;67739;52.986;8.894;2023-05-23T08:09:25;2.83;;;0.98;;
78443;SDS011;67739;52.986;8.894;2023-05-23T08:11:51;5.78;;;1.58;;
78443;SDS011;67739;52.986;8.894;2023-05-23T08:14:16;6.43;;;2.03;;
78443;SDS011;67739;52.986;8.894;2023-05-23T08:16:41;5.65;;;1.42;;
78443;SDS011;67739;52.986;8.894;2023-05-23T08:19:07;2.63;;;0.63;;
78443;SDS011;67739;52.986;8.894;2023-05-23T08:21:33;3.70;;;0.82;;
78443;SDS011;67739;52.986;8.894;2023-05-23T08:24:00;2.05;;;0.85;;
78443;SDS011;67739;52.986;8.894;2023-05-23T08:26:25;2.50;;;0.28;;
78443;SDS011;67739;52.986;8.894;2023-05-23T08:28:54;1.45;;;0.22;;
78443;SDS011;67739;52.986;8.894;2023-05-23T08:31:20;5.25;;;0.60;;
78443;SDS011;67739;52.986;8.894;2023-05-23T08:33:45;1.70;;;0.30;;
78443;SDS011;67739;52.986;8.894;2023-05-23T08:36:11;2.40;;;0.60;;
78443;SDS011;67739;52.986;8.894;2023-05-23T08:38:36;1.80;;;0.55;;
78443;SDS011;67739;52.986;8.894;2023-05-23T08:41:01;2.58;;;0.55;;
78443;SDS011;67739;52.986;8.894;2023-05-23T08:43:29;4.93;;;0.93;;
78443;SDS011;67739;52.986;8.894;2023-05-23T08:45:54;6.13;;;1.92;;
78443;SDS011;67739;52.986;8.894;2023-05-23T08:48:21;4.30;;;1.70;;
78443;SDS011;67739;52.986;8.894;2023-05-23T08:50:47;2.00;;;0.95;;
78443;SDS011;67739;52.986;8.894;2023-05-23T08:53:15;2.10;;;0.75;;
78443;SDS011;67739;52.986;8.894;2023-05-23T08:55:45;4.57;;;1.42;;
78443;SDS011;67739;52.986;8.894;2023-05-23T08:58:12;2.10;;;0.52;;
78443;SDS011;67739;52.986;8.894;2023-05-23T09:00:39;1.77;;;0.98;;
78443;SDS011;67739;52.986;8.894;2023-05-23T09:03:07;3.45;;;0.55;;
78443;SDS011;67739;52.986;8.894;2023-05-23T09:05:33;4.05;;;0.93;;
78443;SDS011;67739;52.986;8.894;2023-05-23T09:07:58;4.10;;;0.98;;
78443;SDS011;67739;52.986;8.894;2023-05-23T09:10:23;2.08;;;0.70;;
78443;SDS011;67739;52.986;8.894;2023-05-23T09:12:49;4.65;;;0.75;;
78443;SDS011;67739;52.986;8.894;2023-05-23T09:15:14;3.58;;;1.45;;
78443;SDS011;67739;52.986;8.894;2023-05-23T09:17:41;3.95;;;0.60;;
78443;SDS011;67739;52.986;8.894;2023-05-23T09:20:10;2.92;;;1.00;;
78443;SDS011;67739;52.986;8.894;2023-05-23T09:22:38;1.15;;;0.35;;
78443;SDS011;67739;52.986;8.894;2023-05-23T09:25:03;3.55;;;1.23;;
78443;SDS011;67739;52.986;8.894;2023-05-23T09:27:29;4.63;;;1.67;;
78443;SDS011;67739;52.986;8.894;2023-05-23T09:29:55;2.28;;;0.35;;
78443;SDS011;67739;52.986;8.894;2023-05-23T09:32:20;5.75;;;1.75;;
78443;SDS011;67739;52.986;8.894;2023-05-23T09:37:15;5.15;;;1.67;;
78443;SDS011;67739;52.986;8.894;2023-05-23T09:39:44;6.80;;;1.25;;
78443;SDS011;67739;52.986;8.894;2023-05-23T09:42:11;6.45;;;1.73;;
78443;SDS011;67739;52.986;8.894;2023-05-23T09:44:40;6.47;;;2.42;;
78443;SDS011;67739;52.986;8.894;2023-05-23T09:47:05;2.95;;;1.20;;
78443;SDS011;67739;52.986;8.894;2023-05-23T09:49:31;2.55;;;1.15;;
78443;SDS011;67739;52.986;8.894;2023-05-23T09:51:57;2.20;;;0.68;;
78443;SDS011;67739;52.986;8.894;2023-05-23T09:54:23;9.10;;;1.65;;
78443;SDS011;67739;52.986;8.894;2023-05-23T09:56:48;3.33;;;0.65;;
78443;SDS011;67739;52.986;8.894;2023-05-23T09:59:17;3.83;;;0.75;;
78443;SDS011;67739;52.986;8.894;2023-05-23T10:01:48;3.38;;;0.50;;
78443;SDS011;67739;52.986;8.894;2023-05-23T10:04:16;3.15;;;1.30;;
78443;SDS011;67739;52.986;8.894;2023-05-23T10:06:50;3.42;;;0.80;;
78443;SDS011;67739;52.986;8.894;2023-05-23T10:09:18;2.70;;;0.82;;
78443;SDS011;67739;52.986;8.894;2023-05-23T10:14:23;5.25;;;1.20;;
78443;SDS011;67739;52.986;8.894;2023-05-23T10:17:14;3.35;;;1.20;;
78443;SDS011;67739;52.986;8.894;2023-05-23T10:19:47;7.20;;;0.75;;
78443;SDS011;67739;52.986;8.894;2023-05-23T10:22:20;3.50;;;0.68;;
78443;SDS011;67739;52.986;8.894;2023-05-23T10:24:48;1.10;;;0.25;;
78443;SDS011;67739;52.986;8.894;2023-05-23T10:27:14;4.25;;;0.55;;
78443;SDS011;67739;52.986;8.894;2023-05-23T10:29:39;2.17;;;0.88;;
78443;SDS011;67739;52.986;8.894;2023-05-23T10:32:05;2.08;;;0.50;;
78443;SDS011;67739;52.986;8.894;2023-05-23T10:37:14;3.42;;;0.88;;
78443;SDS011;67739;52.986;8.894;2023-05-23T10:39:58;3.00;;;0.40;;
78443;SDS011;67739;52.986;8.894;2023-05-23T10:42:44;4.35;;;0.93;;
78443;SDS011;67739;52.986;8.894;2023-05-23T10:45:20;1.73;;;0.98;;
78443;SDS011;67739;52.986;8.894;2023-05-23T10:47:48;5.05;;;0.70;;
78443;SDS011;67739;52.986;8.894;2023-05-23T10:50:37;3.88;;;1.00;;
78443;SDS011;67739;52.986;8.894;2023-05-23T10:53:04;7.97;;;0.93;;
78443;SDS011;67739;52.986;8.894;2023-05-23T10:55:30;0.93;;;0.60;;
78443;SDS011;67739;52.986;8.894;2023-05-23T11:00:35;2.25;;;0.63;;
78443;SDS011;67739;52.986;8.894;2023-05-23T11:03:03;3.42;;;1.08;;
78443;SDS011;67739;52.986;8.894;2023-05-23T11:05:32;6.07;;;1.30;;
78443;SDS011;67739;52.986;8.894;2023-05-23T11:08:05;4.60;;;0.50;;
78443;SDS011;67739;52.986;8.894;2023-05-23T11:10:50;4.03;;;0.77;;
78443;SDS011;67739;52.986;8.894;2023-05-23T11:13:25;3.63;;;1.30;;
78443;SDS011;67739;52.986;8.894;2023-05-23T11:16:40;3.10;;;0.88;;
78443;SDS011;67739;52.986;8.894;2023-05-23T11:21:54;3.38;;;0.60;;
78443;SDS011;67739;52.986;8.894;2023-05-23T11:24:21;3.00;;;1.17;;
78443;SDS011;67739;52.986;8.894;2023-05-23T11:26:51;2.47;;;0.40;;
78443;SDS011;67739;52.986;8.894;2023-05-23T11:29:18;1.83;;;0.47;;
78443;SDS011;67739;52.986;8.894;2023-05-23T11:31:43;2.13;;;0.60;;
78443;SDS011;67739;52.986;8.894;2023-05-23T11:34:09;3.20;;;0.85;;
78443;SDS011;67739;52.986;8.894;2023-05-23T11:36:36;1.98;;;0.65;;
78443;SDS011;67739;52.986;8.894;2023-05-23T11:39:01;3.03;;;0.50;;
78443;SDS011;67739;52.986;8.894;2023-05-23T11:41:28;2.53;;;0.68;;
78443;SDS011;67739;52.986;8.894;2023-05-23T11:43:54;2.70;;;0.60;;
78443;SDS011;67739;52.986;8.894;2023-05-23T11:46:20;4.43;;;1.33;;
78443;SDS011;67739;52.986;8.894;2023-05-23T11:48:46;1.58;;;0.47;;
78443;SDS011;67739;52.986;8.894;2023-05-23T11:51:12;3.25;;;0.77;;
78443;SDS011;67739;52.986;8.894;2023-05-23T11:53:37;4.82;;;1.58;;
78443;SDS011;67739;52.986;8.894;2023-05-23T11:56:03;5.82;;;0.85;;
78443;SDS011;67739;52.986;8.894;2023-05-23T11:58:31;5.05;;;1.35;;
78443;SDS011;67739;52.986;8.894;2023-05-23T12:01:02;3.03;;;0.75;;
78443;SDS011;67739;52.986;8.894;2023-05-23T12:03:28;6.10;;;1.90;;
78443;SDS011;67739;52.986;8.894;2023-05-23T12:05:54;2.97;;;0.98;;
78443;SDS011;67739;52.986;8.894;2023-05-23T12:08:20;2.85;;;0.68;;
78443;SDS011;67739;52.986;8.894;2023-05-23T12:10:52;4.95;;;0.50;;
78443;SDS011;67739;52.986;8.894;2023-05-23T12:13:28;5.65;;;0.68;;
78443;SDS011;67739;52.986;8.894;2023-05-23T12:16:02;0.88;;;0.40;;
78443;SDS011;67739;52.986;8.894;2023-05-23T12:18:29;2.22;;;0.45;;
78443;SDS011;67739;52.986;8.894;2023-05-23T12:21:02;5.72;;;1.17;;
78443;SDS011;67739;52.986;8.894;2023-05-23T12:23:30;2.85;;;0.45;;
78443;SDS011;67739;52.986;8.894;2023-05-23T12:25:56;3.13;;;0.98;;
78443;SDS011;67739;52.986;8.894;2023-05-23T12:34:02;4.63;;;0.90;;
78443;SDS011;67739;52.986;8.894;2023-05-23T12:36:28;4.80;;;1.65;;
78443;SDS011;67739;52.986;8.894;2023-05-23T12:39:00;2.47;;;0.60;;
78443;SDS011;67739;52.986;8.894;2023-05-23T12:41:27;4.82;;;1.17;;
78443;SDS011;67739;52.986;8.894;2023-05-23T12:43:53;1.67;;;0.60;;
78443;SDS011;67739;52.986;8.894;2023-05-23T12:46:20;2.15;;;0.75;;
78443;SDS011;67739;52.986;8.894;2023-05-23T12:48:47;3.83;;;1.05;;
78443;SDS011;67739;52.986;8.894;2023-05-23T12:51:15;1.38;;;0.30;;
78443;SDS011;67739;52.986;8.894;2023-05-23T12:53:41;2.17;;;0.73;;
78443;SDS011;67739;52.986;8.894;2023-05-23T12:56:06;5.90;;;1.05;;
78443;SDS011;67739;52.986;8.894;2023-05-23T12:58:32;1.20;;;0.30;;
78443;SDS011;67739;52.986;8.894;2023-05-23T13:00:59;3.20;;;0.60;;
78443;SDS011;67739;52.986;8.894;2023-05-23T13:03:25;3.92;;;1.02;;
78443;SDS011;67739;52.986;8.894;2023-05-23T13:05:50;3.38;;;0.50;;
78443;SDS011;67739;52.986;8.894;2023-05-23T13:08:17;4.22;;;1.35;;
78443;SDS011;67739;52.986;8.894;2023-05-23T13:10:43;2.13;;;0.50;;
78443;SDS011;67739;52.986;8.894;2023-05-23T13:13:09;6.13;;;0.90;;
78443;SDS011;67739;52.986;8.894;2023-05-23T13:15:35;4.53;;;0.95;;
78443;SDS011;67739;52.986;8.894;2023-05-23T13:18:01;3.72;;;0.82;;
78443;SDS011;67739;52.986;8.894;2023-05-23T13:20:26;3.42;;;0.90;;
78443;SDS011;67739;52.986;8.894;2023-05-23T13:22:56;1.90;;;0.40;;
78443;SDS011;67739;52.986;8.894;2023-05-23T13:25:21;2.58;;;0.80;;
78443;SDS011;67739;52.986;8.894;2023-05-23T13:27:47;3.92;;;0.73;;
78443;SDS011;67739;52.986;8.894;2023-05-23T13:30:13;3.50;;;0.55;;
78443;SDS011;67739;52.986;8.894;2023-05-23T13:32:38;6.80;;;1.08;;
78443;SDS011;67739;52.986;8.894;2023-05-23T13:35:04;7.60;;;0.90;;
78443;SDS011;67739;52.986;8.894;2023-05-23T13:37:29;2.95;;;0.70;;
78443;SDS011;67739;52.986;8.894;2023-05-23T13:39:55;3.92;;;0.52;;
78443;SDS011;67739;52.986;8.894;2023-05-23T13:42:20;3.50;;;0.80;;
78443;SDS011;67739;52.986;8.894;2023-05-23T13:44:46;3.15;;;0.70;;
78443;SDS011;67739;52.986;8.894;2023-05-23T13:47:11;3.28;;;0.90;;
78443;SDS011;67739;52.986;8.894;2023-05-23T13:49:38;4.25;;;0.93;;
78443;SDS011;67739;52.986;8.894;2023-05-23T13:52:05;2.05;;;0.40;;
78443;SDS011;67739;52.986;8.894;2023-05-23T13:54:30;2.90;;;1.73;;
78443;SDS011;67739;52.986;8.894;2023-05-23T13:56:56;6.13;;;0.77;;
78443;SDS011;67739;52.986;8.894;2023-05-23T13:59:22;2.42;;;0.90;;
78443;SDS011;67739;52.986;8.894;2023-05-23T14:01:48;5.20;;;0.88;;
78443;SDS011;67739;52.986;8.894;2023-05-23T14:04:13;1.92;;;0.63;;
78443;SDS011;67739;52.986;8.894;2023-05-23T14:06:39;3.22;;;0.65;;
78443;SDS011;67739;52.986;8.894;2023-05-23T14:09:04;4.25;;;0.68;;
78443;SDS011;67739;52.986;8.894;2023-05-23T14:11:30;2.65;;;0.70;;
78443;SDS011;67739;52.986;8.894;2023-05-23T14:13:55;2.28;;;0.52;;
78443;SDS011;67739;52.986;8.894;2023-05-23T14:16:21;4.53;;;0.88;;
78443;SDS011;67739;52.986;8.894;2023-05-23T14:18:46;1.25;;;0.50;;
78443;SDS011;67739;52.986;8.894;2023-05-23T14:21:11;3.25;;;0.73;;
78443;SDS011;67739;52.986;8.894;2023-05-23T14:23:37;4.03;;;1.00;;
78443;SDS011;67739;52.986;8.894;2023-05-23T14:26:02;2.85;;;0.45;;
78443;SDS011;67739;52.986;8.894;2023-05-23T14:28:28;3.22;;;0.73;;
78443;SDS011;67739;52.986;8.894;2023-05-23T14:30:53;3.25;;;0.50;;
78443;SDS011;67739;52.986;8.894;2023-05-23T14:33:19;4.00;;;0.73;;
78443;SDS011;67739;52.986;8.894;2023-05-23T14:35:45;1.45;;;0.20;;
78443;SDS011;67739;52.986;8.894;2023-05-23T14:38:10;1.70;;;0.30;;
78443;SDS011;67739;52.986;8.894;2023-05-23T14:40:36;2.38;;;0.70;;
78443;SDS011;67739;52.986;8.894;2023-05-23T14:43:01;3.33;;;0.38;;
78443;SDS011;67739;52.986;8.894;2023-05-23T14:45:27;2.03;;;0.30;;
78443;SDS011;67739;52.986;8.894;2023-05-23T14:47:52;1.92;;;0.50;;
78443;SDS011;67739;52.986;8.894;2023-05-23T14:50:17;4.50;;;0.95;;
78443;SDS011;67739;52.986;8.894;2023-05-23T14:52:43;0.98;;;0.38;;
78443;SDS011;67739;52.986;8.894;2023-05-23T14:55:09;3.20;;;0.45;;
78443;SDS011;67739;52.986;8.894;2023-05-23T14:57:35;3.40;;;0.63;;
78443;SDS011;67739;52.986;8.894;2023-05-23T15:00:00;1.40;;;0.17;;
78443;SDS011;67739;52.986;8.894;2023-05-23T15:02:29;3.08;;;0.20;;
78443;SDS011;67739;52.986;8.894;2023-05-23T15:04:55;1.35;;;0.20;;
78443;SDS011;67739;52.986;8.894;2023-05-23T15:07:21;3.92;;;0.60;;
78443;SDS011;67739;52.986;8.894;2023-05-23T15:09:47;1.75;;;0.43;;